createdAt,value
2022-09-05T00:04:28.839Z,87.80
2022-09-05T00:12:38.499Z,87.90
2022-09-05T00:24:37.609Z,87.90
2022-09-05T00:30:23.523Z,87.80
2022-09-05T00:37:58.430Z,88.70
2022-09-05T00:46:10.622Z,89.50
2022-09-05T00:54:41.033Z,88.90
2022-09-05T01:03:20.907Z,88.60
2022-09-05T01:11:40.898Z,88.50
2022-09-05T01:20:19.047Z,88.10
2022-09-05T01:29:15.492Z,88.20
2022-09-05T01:37:06.199Z,88.60
2022-09-05T01:45:21.786Z,88.10
2022-09-05T01:53:41.830Z,88.00
2022-09-05T02:02:13.740Z,88.00
2022-09-05T02:10:39.902Z,89.00
2022-09-05T02:18:57.561Z,89.20
2022-09-05T02:27:45.857Z,89.70
2022-09-05T02:36:07.655Z,89.80
2022-09-05T02:45:08.327Z,90.40
2022-09-05T02:57:27.198Z,90.40
2022-09-05T03:01:16.975Z,91.00
2022-09-05T03:09:39.674Z,91.40
2022-09-05T03:18:23.677Z,92.10
2022-09-05T03:26:46.227Z,91.80
2022-09-05T03:35:32.107Z,91.50
2022-09-05T03:44:16.651Z,91.30
2022-09-05T03:57:14.074Z,91.50
2022-09-05T04:01:58.890Z,91.60
2022-09-05T04:09:50.941Z,91.40
2022-09-05T04:18:03.771Z,92.00
2022-09-05T04:26:23.169Z,91.50
2022-09-05T04:34:49.906Z,91.10
2022-09-05T04:42:56.826Z,91.20
2022-09-05T04:51:13.298Z,91.10
2022-09-05T05:03:29.906Z,90.90
2022-09-05T05:07:57.890Z,91.10
2022-09-05T05:17:55.226Z,91.00
2022-09-05T05:24:45.096Z,90.80
2022-09-05T05:32:53.291Z,90.40
2022-09-05T05:41:10.958Z,90.30
2022-09-05T05:49:42.346Z,90.30
2022-09-05T05:58:20.746Z,90.00
2022-09-05T06:06:47.393Z,89.10
2022-09-05T06:15:44.112Z,88.30
2022-09-05T06:24:27.966Z,87.00
2022-09-05T06:33:00.395Z,85.80
2022-09-05T06:41:25.563Z,85.40
2022-09-05T06:49:55.328Z,81.60
2022-09-05T06:58:31.183Z,79.80
2022-09-05T07:07:02.373Z,78.40
2022-09-05T07:15:21.334Z,77.80
2022-09-05T07:23:52.740Z,76.40
2022-09-05T07:32:22.422Z,74.20
2022-09-05T07:40:35.384Z,73.40
2022-09-05T07:48:45.000Z,74.10
2022-09-05T07:57:25.504Z,73.80
2022-09-05T08:05:34.541Z,73.00
2022-09-05T08:14:06.632Z,70.90
2022-09-05T08:22:25.164Z,71.40
2022-09-05T08:30:40.793Z,70.40
2022-09-05T08:38:47.693Z,70.00
2022-09-05T08:47:03.156Z,69.50
2022-09-05T08:55:19.329Z,70.20
2022-09-05T09:03:32.623Z,69.40
2022-09-05T09:11:46.292Z,69.90
2022-09-05T09:20:07.765Z,69.80
2022-09-05T09:28:47.728Z,69.40
2022-09-05T09:37:31.966Z,67.40
2022-09-05T09:46:19.014Z,67.00
2022-09-05T09:54:57.228Z,64.20
2022-09-05T10:10:34.136Z,63.20
2022-09-05T10:12:20.930Z,63.40
2022-09-05T10:21:16.709Z,59.00
2022-09-05T10:29:46.323Z,56.80
2022-09-05T10:38:10.249Z,55.00
2022-09-05T10:46:49.451Z,57.10
2022-09-05T10:55:27.933Z,51.00
2022-09-05T11:03:39.309Z,38.10
2022-09-05T11:11:49.811Z,37.00
2022-09-05T11:20:27.676Z,42.40
2022-09-05T11:28:57.573Z,39.50
2022-09-05T11:39:52.868Z,32.70
2022-09-05T11:46:15.883Z,29.70
2022-09-05T11:54:55.072Z,28.80
2022-09-05T12:03:59.493Z,33.30
2022-09-05T12:12:41.264Z,40.60
2022-09-05T12:21:01.927Z,46.80
2022-09-05T12:29:33.553Z,45.80
2022-09-05T12:40:52.913Z,38.00
2022-09-05T12:46:24.797Z,35.00
2022-09-05T12:54:36.356Z,34.90
2022-09-05T13:03:13.607Z,43.40
2022-09-05T13:14:58.327Z,50.10
2022-09-05T13:19:51.551Z,52.30
2022-09-05T13:28:05.195Z,50.80
2022-09-05T13:38:21.303Z,51.30
2022-09-05T13:44:46.604Z,50.50
2022-09-05T13:52:59.897Z,52.50
2022-09-05T14:01:32.239Z,54.30
2022-09-05T14:10:05.686Z,54.80
2022-09-05T14:18:22.286Z,54.90
2022-09-05T14:26:32.744Z,55.00
2022-09-05T14:37:43.862Z,56.10
2022-09-05T14:43:43.180Z,56.70
2022-09-05T14:51:54.993Z,57.40
2022-09-05T15:02:52.712Z,58.70
2022-09-05T15:10:54.585Z,60.10
2022-09-05T15:17:05.888Z,61.30
2022-09-05T15:25:21.711Z,61.20
2022-09-05T15:33:28.797Z,61.80
2022-09-05T15:41:43.281Z,61.40
2022-09-05T15:49:55.963Z,61.40
2022-09-05T15:58:07.638Z,62.00
2022-09-05T16:10:35.149Z,61.60
2022-09-05T16:16:33.699Z,62.00
2022-09-05T16:23:40.618Z,62.60
2022-09-05T16:31:55.809Z,63.40
2022-09-05T16:40:08.655Z,64.70
2022-09-05T16:48:33.224Z,66.60
2022-09-05T16:56:41.700Z,70.00
2022-09-05T17:05:04.484Z,72.60
2022-09-05T17:13:16.769Z,73.40
2022-09-05T17:21:45.524Z,74.50
2022-09-05T17:31:14.488Z,74.80
2022-09-05T17:39:03.951Z,75.00
2022-09-05T17:47:16.078Z,75.70
2022-09-05T17:55:21.719Z,76.10
2022-09-05T18:04:17.082Z,76.30
2022-09-05T18:13:14.254Z,76.60
2022-09-05T18:21:12.186Z,76.50
2022-09-05T18:38:27.531Z,76.90
2022-09-05T18:46:58.569Z,76.90
2022-09-05T18:55:07.954Z,77.50
2022-09-05T19:03:38.626Z,77.10
2022-09-05T19:11:53.903Z,77.40
2022-09-05T19:20:31.237Z,78.90
2022-09-05T19:36:59.060Z,79.90
2022-09-05T19:37:38.580Z,80.20
2022-09-05T19:47:48.314Z,80.90
2022-09-05T19:54:06.064Z,81.00
2022-09-05T20:02:20.234Z,83.50
2022-09-05T20:10:31.749Z,85.10
2022-09-05T20:18:43.039Z,84.60
2022-09-05T20:26:51.709Z,84.40
2022-09-05T20:40:25.415Z,85.30
2022-09-05T20:43:57.998Z,86.00
2022-09-05T20:54:15.236Z,85.60
2022-09-05T21:00:34.269Z,85.70
2022-09-05T21:08:40.420Z,86.40
2022-09-05T21:16:50.510Z,87.60
2022-09-05T21:25:11.807Z,88.70
2022-09-05T21:33:44.472Z,89.60
2022-09-05T21:41:53.231Z,90.00
2022-09-05T21:50:30.533Z,90.90
2022-09-05T21:59:24.054Z,90.90
2022-09-05T22:07:07.226Z,90.80
2022-09-05T22:15:27.470Z,90.70
2022-09-05T22:23:38.652Z,91.30
2022-09-05T22:31:44.073Z,91.20
2022-09-05T22:39:52.244Z,91.20
2022-09-05T22:47:57.969Z,91.80
2022-09-05T22:56:08.716Z,92.30
2022-09-05T23:04:14.130Z,91.80
2022-09-05T23:12:22.188Z,92.40
2022-09-05T23:20:29.844Z,92.80
2022-09-05T23:28:42.689Z,92.50
2022-09-05T23:36:48.269Z,92.60
2022-09-05T23:44:56.273Z,92.00
2022-09-05T23:53:06.643Z,91.60
